Time;durP1;ratioP1;P1;durP2;ratioP2;P2;SDS_P1;SDS_P2;PMS_P1;PMS_P2;Temp;Humidity;BMP_temperature;BMP_pressure;BME280_temperature;BME280_humidity;BME280_pressure;Samples;Min_cycle;Max_cycle;Signal;HPM_P1;HPM_P2
2022/06/11 00:01:45;;;;;;;0.50;0.40;;;15.30;99.90;;;;;;5054522;28;20446;-80
2022/06/11 00:04:15;;;;;;;0.60;0.60;;;15.30;99.90;;;;;;5055040;28;20981;-80
2022/06/11 00:06:47;;;;;;;0.40;0.40;;;15.20;99.90;;;;;;5055592;28;20469;-80
2022/06/11 00:09:16;;;;;;;0.47;0.47;;;15.20;99.90;;;;;;5055348;28;20438;-80
2022/06/11 00:11:43;;;;;;;0.40;0.33;;;15.20;99.90;;;;;;5056028;28;20797;-80
2022/06/11 00:14:11;;;;;;;0.80;0.40;;;15.10;99.90;;;;;;5055170;28;20454;-80
2022/06/11 00:16:38;;;;;;;0.50;0.50;;;15.00;99.90;;;;;;5055853;28;20457;-80
2022/06/11 00:19:06;;;;;;;0.50;0.50;;;15.00;99.90;;;;;;5055168;28;20426;-80
2022/06/11 00:21:35;;;;;;;0.80;0.43;;;15.00;99.90;;;;;;5054764;28;20933;-80
2022/06/11 00:24:02;;;;;;;1.20;0.50;;;14.90;99.90;;;;;;5054971;28;20469;-80
2022/06/11 00:26:31;;;;;;;0.53;0.53;;;14.90;99.90;;;;;;5054700;28;20481;-80
2022/06/11 00:28:57;;;;;;;0.60;0.40;;;14.90;99.90;;;;;;5054976;28;20438;-80
2022/06/11 00:31:25;;;;;;;0.50;0.50;;;14.80;99.90;;;;;;5054907;28;20442;-80
2022/06/11 00:33:52;;;;;;;0.63;0.47;;;14.80;99.90;;;;;;5054518;28;20817;-80
2022/06/11 00:36:19;;;;;;;0.70;0.50;;;14.80;99.90;;;;;;5054506;28;20945;-80
2022/06/11 00:38:47;;;;;;;1.00;0.60;;;14.70;99.90;;;;;;5054704;28;20449;-80
2022/06/11 00:41:16;;;;;;;0.43;0.40;;;14.70;99.90;;;;;;5054438;28;20811;-80
2022/06/11 00:43:44;;;;;;;0.97;0.80;;;14.80;99.90;;;;;;5054433;28;20999;-80
2022/06/11 00:46:43;;;;;;;0.50;0.30;;;14.80;99.90;;;;;;5054553;28;20445;-80
2022/06/11 00:49:19;;;;;;;1.00;0.53;;;14.80;99.90;;;;;;5054553;28;20438;-80
2022/06/11 00:51:46;;;;;;;0.70;0.60;;;14.80;99.90;;;;;;5054262;28;20917;-80
2022/06/11 00:54:18;;;;;;;0.50;0.50;;;14.80;99.90;;;;;;5054106;28;20454;-80
2022/06/11 00:56:49;;;;;;;0.50;0.43;;;14.80;99.90;;;;;;5054467;28;20417;-80
2022/06/11 00:59:22;;;;;;;1.00;0.47;;;14.80;99.90;;;;;;5054069;28;20897;-80
2022/06/11 01:01:49;;;;;;;0.53;0.53;;;14.80;99.90;;;;;;5054172;28;20812;-80
2022/06/11 01:04:38;;;;;;;0.70;0.53;;;14.70;99.90;;;;;;5053931;28;20461;-80
2022/06/11 01:07:18;;;;;;;0.53;0.50;;;14.70;99.90;;;;;;5053892;28;20461;-80
2022/06/11 01:09:55;;;;;;;0.40;0.40;;;14.70;99.90;;;;;;5054234;28;20504;-80
2022/06/11 01:12:30;;;;;;;1.10;0.50;;;14.70;99.90;;;;;;5054013;28;20441;-80
2022/06/11 01:15:08;;;;;;;0.43;0.43;;;14.60;99.90;;;;;;5054070;28;20488;-80
2022/06/11 01:17:45;;;;;;;0.50;0.40;;;14.60;99.90;;;;;;5053772;28;20929;-80
2022/06/11 01:20:24;;;;;;;0.67;0.50;;;14.60;99.90;;;;;;5053724;28;20939;-80
2022/06/11 01:23:24;;;;;;;0.40;0.40;;;14.60;99.90;;;;;;5054044;28;20411;-80
2022/06/11 01:26:00;;;;;;;1.80;0.60;;;14.60;99.90;;;;;;5015339;28;20487;-80
2022/06/11 01:28:49;;;;;;;0.40;0.40;;;14.60;99.90;;;;;;5053549;28;20498;-80
2022/06/11 01:31:23;;;;;;;0.43;0.40;;;14.60;99.90;;;;;;5054668;28;20451;-80
2022/06/11 01:33:57;;;;;;;1.60;0.60;;;14.60;99.90;;;;;;5053701;28;20492;-80
2022/06/11 01:36:27;;;;;;;0.50;0.50;;;14.70;99.90;;;;;;5053446;28;20441;-80
2022/06/11 01:39:00;;;;;;;1.07;0.60;;;14.70;99.90;;;;;;5054031;28;20414;-80
2022/06/11 01:41:36;;;;;;;0.40;0.40;;;14.70;99.90;;;;;;5053687;28;20442;-80
2022/06/11 01:44:09;;;;;;;0.43;0.40;;;14.80;99.90;;;;;;5053566;28;20465;-80
2022/06/11 01:46:40;;;;;;;0.60;0.60;;;14.80;99.90;;;;;;5053626;28;20411;-80
2022/06/11 01:49:28;;;;;;;0.83;0.40;;;14.70;99.90;;;;;;5053468;28;20477;-80
2022/06/11 01:52:04;;;;;;;0.60;0.40;;;14.70;99.90;;;;;;5053113;28;20438;-80
2022/06/11 01:54:38;;;;;;;0.50;0.40;;;14.70;99.90;;;;;;5053428;28;20469;-80
2022/06/11 01:57:23;;;;;;;0.70;0.70;;;14.70;99.90;;;;;;5053456;28;20430;-80
2022/06/11 02:00:05;;;;;;;1.90;0.80;;;14.70;99.90;;;;;;5054076;28;20779;-80
2022/06/11 02:02:50;;;;;;;0.70;0.70;;;14.60;99.90;;;;;;5053423;28;20441;-80
2022/06/11 02:05:21;;;;;;;2.10;1.13;;;14.60;99.90;;;;;;5053255;28;20473;-80
2022/06/11 02:07:58;;;;;;;0.40;0.40;;;14.50;99.90;;;;;;5053026;28;20458;-80
2022/06/11 02:10:33;;;;;;;0.60;0.60;;;14.50;99.90;;;;;;5053003;28;20928;-80
2022/06/11 02:13:03;;;;;;;0.53;0.53;;;14.50;99.90;;;;;;5053232;28;20469;-80
2022/06/11 02:15:34;;;;;;;0.50;0.50;;;14.40;99.90;;;;;;5053043;28;20771;-80
2022/06/11 02:18:08;;;;;;;0.97;0.77;;;14.40;99.90;;;;;;5052976;28;20418;-80
2022/06/11 02:20:39;;;;;;;1.07;0.50;;;14.30;99.90;;;;;;5053223;28;20441;-80
2022/06/11 02:23:12;;;;;;;1.67;1.47;;;14.30;99.90;;;;;;5053157;28;20430;-80
2022/06/11 02:25:43;;;;;;;0.70;0.50;;;14.30;99.90;;;;;;5054660;28;20548;-80
2022/06/11 02:28:14;;;;;;;0.80;0.73;;;14.30;99.90;;;;;;5057175;28;20469;-80
2022/06/11 02:30:44;;;;;;;0.50;0.50;;;14.30;99.90;;;;;;5057191;28;20491;-80
2022/06/11 02:33:15;;;;;;;0.60;0.60;;;14.30;99.90;;;;;;5058036;28;20450;-80
2022/06/11 02:35:46;;;;;;;0.70;0.60;;;14.30;99.90;;;;;;5057147;28;20417;-80
2022/06/11 02:38:17;;;;;;;0.50;0.50;;;14.30;99.90;;;;;;5056792;28;20920;-80
2022/06/11 02:40:48;;;;;;;0.80;0.43;;;14.40;99.90;;;;;;5056974;28;20503;-80
2022/06/11 02:43:15;;;;;;;0.53;0.47;;;14.40;99.90;;;;;;5056926;28;20434;-80
2022/06/11 02:45:43;;;;;;;0.60;0.40;;;14.40;99.90;;;;;;5056663;28;20445;-80
2022/06/11 02:48:10;;;;;;;0.70;0.50;;;14.30;99.90;;;;;;5056761;28;20508;-80
2022/06/11 02:50:38;;;;;;;0.50;0.50;;;14.30;99.90;;;;;;5056799;28;20445;-80
2022/06/11 02:53:07;;;;;;;0.53;0.53;;;14.30;99.90;;;;;;5056703;28;20449;-80
2022/06/11 02:55:35;;;;;;;0.40;0.40;;;14.20;99.90;;;;;;5056419;28;20458;-80
2022/06/11 02:58:02;;;;;;;0.60;0.50;;;14.20;99.90;;;;;;5056424;28;20442;-80
2022/06/11 03:00:32;;;;;;;0.40;0.40;;;14.20;99.90;;;;;;5056683;28;20445;-80
2022/06/11 03:02:59;;;;;;;0.40;0.30;;;14.10;99.90;;;;;;5056322;28;20480;-80
2022/06/11 03:05:31;;;;;;;0.87;0.40;;;14.00;99.90;;;;;;5056519;28;20449;-80
2022/06/11 03:08:00;;;;;;;2.13;0.70;;;14.00;99.90;;;;;;5056516;28;20480;-80
2022/06/11 03:10:28;;;;;;;1.37;0.60;;;14.00;99.90;;;;;;5056187;28;20952;-80
2022/06/11 03:12:55;;;;;;;0.60;0.50;;;13.90;99.90;;;;;;5056395;28;20454;-80
2022/06/11 03:15:24;;;;;;;0.40;0.40;;;13.90;99.90;;;;;;5056383;28;20446;-80
2022/06/11 03:17:53;;;;;;;0.83;0.50;;;13.90;99.90;;;;;;5056890;28;20446;-80
2022/06/11 03:20:23;;;;;;;1.43;0.57;;;13.90;99.90;;;;;;5056282;28;20446;-80
2022/06/11 03:22:50;;;;;;;0.60;0.60;;;13.90;99.90;;;;;;5056237;28;20438;-80
2022/06/11 03:25:19;;;;;;;1.47;0.50;;;13.90;99.90;;;;;;5056108;28;20526;-80
2022/06/11 03:27:47;;;;;;;1.90;0.70;;;13.90;99.90;;;;;;5055652;28;20500;-80
2022/06/11 03:30:16;;;;;;;0.60;0.60;;;13.80;99.90;;;;;;5056558;28;20442;-80
2022/06/11 03:32:43;;;;;;;0.70;0.40;;;13.80;99.90;;;;;;5055998;28;20441;-80
2022/06/11 03:35:10;;;;;;;0.50;0.40;;;13.80;99.90;;;;;;5055913;28;20473;-80
2022/06/11 03:37:37;;;;;;;0.90;0.67;;;13.90;99.90;;;;;;5055440;28;20823;-80
2022/06/11 03:40:05;;;;;;;0.70;0.50;;;13.80;99.90;;;;;;5055567;28;20953;-80
2022/06/11 03:42:33;;;;;;;0.80;0.47;;;13.80;99.90;;;;;;5055863;28;20457;-80
2022/06/11 03:45:00;;;;;;;0.63;0.60;;;13.80;99.90;;;;;;5055377;28;20628;-80
2022/06/11 03:47:27;;;;;;;0.60;0.60;;;13.80;99.90;;;;;;5055343;28;20833;-80
2022/06/11 03:49:53;;;;;;;0.50;0.50;;;13.90;99.90;;;;;;5055625;28;20457;-80
2022/06/11 03:52:22;;;;;;;0.50;0.50;;;13.90;99.90;;;;;;5055449;28;20831;-80
2022/06/11 03:54:49;;;;;;;0.57;0.40;;;13.90;99.90;;;;;;5055738;28;20862;-80
2022/06/11 03:57:16;;;;;;;0.63;0.53;;;13.90;99.90;;;;;;5055255;28;20968;-80
2022/06/11 03:59:44;;;;;;;0.50;0.50;;;14.00;99.90;;;;;;5055477;28;20526;-80
2022/06/11 04:02:11;;;;;;;0.50;0.40;;;13.90;99.90;;;;;;5055487;28;20481;-80
2022/06/11 04:04:38;;;;;;;0.80;0.70;;;14.00;99.90;;;;;;5055060;28;20458;-80
2022/06/11 04:07:05;;;;;;;5.10;0.80;;;14.10;99.90;;;;;;5055374;28;20449;-80
2022/06/11 04:09:34;;;;;;;0.53;0.53;;;14.10;99.90;;;;;;5055020;28;20488;-80
2022/06/11 04:12:01;;;;;;;0.50;0.40;;;14.10;99.90;;;;;;5055517;28;20446;-80
2022/06/11 04:14:28;;;;;;;0.57;0.50;;;14.20;99.90;;;;;;5054936;28;20461;-80
2022/06/11 04:16:58;;;;;;;0.63;0.63;;;14.20;99.90;;;;;;5055466;28;20446;-80
2022/06/11 04:19:27;;;;;;;0.30;0.30;;;14.30;99.90;;;;;;5055227;28;20488;-80
2022/06/11 04:21:57;;;;;;;1.37;0.77;;;14.30;99.90;;;;;;5054862;28;20445;-80
2022/06/11 04:24:25;;;;;;;0.40;0.40;;;14.30;99.90;;;;;;5055324;28;20474;-80
2022/06/11 04:26:55;;;;;;;0.63;0.60;;;14.40;99.90;;;;;;5054849;28;20485;-80
2022/06/11 04:29:27;;;;;;;0.70;0.40;;;14.40;99.90;;;;;;5054873;28;20485;-80
2022/06/11 04:31:58;;;;;;;0.50;0.43;;;14.60;99.90;;;;;;5054682;28;20419;-80
2022/06/11 04:34:29;;;;;;;0.60;0.40;;;14.60;99.90;;;;;;5055008;28;20476;-80
2022/06/11 04:36:56;;;;;;;0.80;0.80;;;14.60;99.90;;;;;;5054633;28;20426;-80
2022/06/11 04:39:25;;;;;;;1.07;0.60;;;14.70;99.90;;;;;;5054748;28;20929;-80
2022/06/11 04:41:53;;;;;;;0.57;0.57;;;14.80;99.90;;;;;;5054429;28;20446;-80
2022/06/11 04:44:21;;;;;;;0.60;0.60;;;14.80;99.90;;;;;;5054362;28;20965;-80
2022/06/11 04:46:48;;;;;;;0.40;0.40;;;14.90;99.90;;;;;;5054610;28;20457;-80
2022/06/11 04:49:16;;;;;;;1.27;0.50;;;14.90;99.90;;;;;;5053567;28;20856;-80
2022/06/11 04:51:44;;;;;;;0.40;0.40;;;14.90;99.90;;;;;;5054744;28;20453;-80
2022/06/11 04:54:11;;;;;;;0.50;0.50;;;14.90;99.90;;;;;;5054171;28;20464;-80
2022/06/11 04:56:38;;;;;;;1.00;0.50;;;15.10;99.90;;;;;;5054207;28;20441;-80
2022/06/11 04:59:06;;;;;;;0.40;0.40;;;15.10;99.90;;;;;;5054406;28;20457;-80
2022/06/11 05:01:33;;;;;;;0.50;0.47;;;15.20;99.90;;;;;;5054328;28;20446;-80
2022/06/11 05:04:00;;;;;;;1.03;0.50;;;15.30;99.90;;;;;;5054254;28;20472;-80
2022/06/11 05:06:32;;;;;;;0.60;0.50;;;15.30;99.90;;;;;;5054287;28;20445;-80
2022/06/11 05:08:59;;;;;;;0.83;0.50;;;15.30;99.90;;;;;;5053894;28;20473;-80
2022/06/11 05:11:26;;;;;;;0.40;0.30;;;15.40;99.90;;;;;;5054059;28;20454;-80
2022/06/11 05:13:53;;;;;;;0.60;0.40;;;15.40;99.90;;;;;;5054441;28;20480;-80
2022/06/11 05:16:21;;;;;;;1.13;0.50;;;15.50;99.90;;;;;;5054051;28;20446;-80
2022/06/11 05:18:49;;;;;;;0.80;0.40;;;15.60;99.90;;;;;;5053716;28;20937;-80
2022/06/11 05:21:15;;;;;;;0.70;0.70;;;15.70;99.90;;;;;;5054000;28;20452;-80
2022/06/11 05:23:44;;;;;;;1.03;0.60;;;15.80;99.90;;;;;;5053841;28;20831;-80
2022/06/11 05:26:14;;;;;;;0.50;0.40;;;15.90;99.90;;;;;;5053627;28;20484;-81
2022/06/11 05:28:41;;;;;;;3.30;0.40;;;16.00;99.90;;;;;;5053891;28;20490;-80
2022/06/11 05:31:07;;;;;;;0.50;0.50;;;16.10;99.90;;;;;;5053809;28;20446;-80
2022/06/11 05:33:34;;;;;;;1.23;0.90;;;16.20;99.90;;;;;;5053953;28;20465;-80
2022/06/11 05:36:01;;;;;;;0.40;0.40;;;16.30;99.90;;;;;;5053765;28;20446;-80
2022/06/11 05:38:31;;;;;;;0.50;0.50;;;16.40;99.90;;;;;;5053711;28;20442;-80
2022/06/11 05:41:00;;;;;;;0.80;0.60;;;16.50;99.90;;;;;;5054472;28;20453;-80
2022/06/11 05:43:27;;;;;;;1.07;0.80;;;16.60;99.90;;;;;;5053570;28;20844;-80
2022/06/11 05:45:57;;;;;;;1.00;0.60;;;16.70;99.90;;;;;;5053576;28;20453;-80
2022/06/11 05:48:28;;;;;;;0.60;0.60;;;16.80;99.90;;;;;;5053974;28;20482;-80
2022/06/11 05:50:57;;;;;;;2.63;0.50;;;16.90;99.90;;;;;;5053547;28;20764;-80
2022/06/11 05:53:27;;;;;;;0.60;0.60;;;17.00;99.90;;;;;;5053204;28;20450;-80
2022/06/11 05:55:56;;;;;;;1.20;1.03;;;17.20;99.90;;;;;;5053424;28;20464;-80
2022/06/11 05:58:28;;;;;;;0.83;0.67;;;17.30;99.90;;;;;;5053659;28;20441;-80
2022/06/11 06:00:56;;;;;;;0.43;0.43;;;17.40;99.90;;;;;;5052310;28;20417;-80
2022/06/11 06:03:23;;;;;;;0.77;0.63;;;17.60;99.90;;;;;;5053272;28;20477;-80
2022/06/11 06:05:50;;;;;;;0.40;0.40;;;17.80;99.90;;;;;;5053113;28;20999;-80
2022/06/11 06:08:16;;;;;;;0.60;0.47;;;18.10;99.90;;;;;;5053212;28;20476;-80
2022/06/11 06:10:44;;;;;;;0.90;0.70;;;18.30;99.90;;;;;;5053240;28;20453;-80
2022/06/11 06:15:53;;;;;;;0.70;0.60;;;18.90;99.90;;;;;;5044146;28;20433;-81
2022/06/11 06:18:20;;;;;;;0.70;0.70;;;19.20;99.90;;;;;;5053107;28;20437;-80
2022/06/11 06:20:47;;;;;;;0.83;0.40;;;19.50;99.90;;;;;;5052836;28;20987;-80
2022/06/11 06:23:14;;;;;;;1.33;0.90;;;19.90;99.90;;;;;;5053085;28;20457;-80
2022/06/11 06:25:41;;;;;;;0.90;0.65;;;20.40;99.90;;;;;;5052527;28;20217;-81
2022/06/11 06:28:09;;;;;;;1.60;0.65;;;20.70;99.90;;;;;;5052861;28;20187;-81
2022/06/11 06:30:36;;;;;;;0.70;0.60;;;21.20;99.90;;;;;;5053064;28;20246;-81
2022/06/11 06:33:04;;;;;;;0.90;0.70;;;21.60;99.90;;;;;;5052765;28;20670;-81
2022/06/11 06:35:31;;;;;;;2.33;0.82;;;21.90;99.90;;;;;;5052796;28;20194;-81
2022/06/11 06:37:58;;;;;;;0.60;0.60;;;22.10;99.90;;;;;;5052926;28;20206;-81
2022/06/11 06:40:25;;;;;;;0.70;0.65;;;22.10;99.90;;;;;;5052969;28;20203;-81
2022/06/11 06:42:52;;;;;;;0.70;0.70;;;22.20;99.90;;;;;;5053034;28;20209;-81
2022/06/11 06:45:20;;;;;;;0.60;0.60;;;22.30;99.90;;;;;;5052904;28;20222;-83
2022/06/11 06:47:47;;;;;;;0.65;0.60;;;22.70;99.90;;;;;;5053238;28;20229;-82
2022/06/11 06:50:16;;;;;;;0.80;0.60;;;22.90;99.90;;;;;;5052785;28;20207;-81
2022/06/11 06:52:42;;;;;;;0.73;0.50;;;23.20;99.90;;;;;;5052828;28;20202;-81
2022/06/11 06:55:09;;;;;;;0.60;0.50;;;23.40;99.90;;;;;;5052823;28;20219;-81
2022/06/11 06:57:36;;;;;;;0.43;0.43;;;23.30;99.90;;;;;;5052854;28;20210;-82
2022/06/11 07:00:05;;;;;;;0.60;0.60;;;23.20;99.90;;;;;;5052856;28;20301;-82
2022/06/11 07:02:32;;;;;;;0.50;0.50;;;23.30;99.90;;;;;;5052465;28;20613;-82
2022/06/11 07:04:59;;;;;;;0.50;0.50;;;23.30;99.90;;;;;;5053000;28;20226;-82
2022/06/11 07:07:27;;;;;;;0.68;0.68;;;23.10;99.90;;;;;;5052788;28;20203;-82
2022/06/11 07:09:55;;;;;;;0.80;0.57;;;23.00;99.90;;;;;;5052698;28;20226;-81
2022/06/11 07:12:22;;;;;;;1.63;0.60;;;23.20;99.90;;;;;;5056381;28;20214;-82
2022/06/11 07:14:49;;;;;;;0.57;0.57;;;22.90;99.90;;;;;;5056354;28;20219;-82
2022/06/11 07:17:18;;;;;;;0.57;0.50;;;22.90;99.90;;;;;;5056071;28;20673;-82
2022/06/11 07:19:48;;;;;;;0.65;0.60;;;23.20;99.90;;;;;;5056325;28;20195;-82
2022/06/11 07:22:20;;;;;;;0.90;0.80;;;23.30;99.90;;;;;;5056010;28;20199;-81
2022/06/11 07:24:48;;;;;;;0.50;0.50;;;23.50;99.90;;;;;;5056298;28;20590;-82
2022/06/11 07:27:18;;;;;;;0.80;0.80;;;23.50;99.90;;;;;;5056016;28;20239;-82
2022/06/11 07:29:48;;;;;;;0.60;0.60;;;23.60;99.90;;;;;;5056730;28;20221;-82
2022/06/11 07:32:19;;;;;;;0.80;0.60;;;23.70;99.90;;;;;;5056098;28;20191;-82
2022/06/11 07:34:46;;;;;;;2.85;0.90;;;23.90;99.80;;;;;;5055674;28;20222;-83
2022/06/11 07:37:13;;;;;;;0.60;0.50;;;24.30;99.00;;;;;;5055662;28;20551;-82
2022/06/11 07:39:40;;;;;;;1.00;0.90;;;24.70;98.50;;;;;;5055673;28;20682;-82
2022/06/11 07:42:10;;;;;;;0.90;0.50;;;25.20;97.80;;;;;;5055638;28;20202;-82
2022/06/11 07:44:38;;;;;;;0.60;0.60;;;25.80;95.50;;;;;;5055469;28;20734;-82
2022/06/11 07:47:05;;;;;;;1.63;0.68;;;26.50;93.30;;;;;;5056322;28;20590;-82
2022/06/11 07:49:32;;;;;;;0.70;0.70;;;27.00;92.40;;;;;;5055500;28;20227;-82
2022/06/11 07:51:59;;;;;;;0.57;0.57;;;27.70;89.10;;;;;;5055467;28;20204;-82
2022/06/11 07:54:26;;;;;;;0.50;0.50;;;28.60;83.10;;;;;;5055259;28;20219;-82
2022/06/11 07:56:53;;;;;;;0.70;0.70;;;28.90;82.60;;;;;;5056313;28;20203;-82
2022/06/11 07:59:21;;;;;;;0.70;0.70;;;28.70;78.30;;;;;;5055591;28;20218;-82
2022/06/11 08:01:48;;;;;;;0.55;0.55;;;28.90;79.50;;;;;;5055499;28;20210;-82
2022/06/11 08:04:15;;;;;;;0.60;0.60;;;28.90;76.50;;;;;;5055393;28;20234;-82
2022/06/11 08:06:41;;;;;;;0.50;0.50;;;28.90;75.60;;;;;;5055089;28;20683;-82
2022/06/11 08:09:08;;;;;;;0.60;0.60;;;29.00;72.60;;;;;;5055575;28;20222;-82
2022/06/11 08:11:35;;;;;;;1.15;1.05;;;28.80;74.50;;;;;;5055318;28;20211;-82
2022/06/11 08:14:02;;;;;;;0.70;0.70;;;29.20;73.90;;;;;;5055256;28;20232;-82
2022/06/11 08:16:30;;;;;;;1.92;0.70;;;29.40;73.30;;;;;;5054975;28;20201;-82
2022/06/11 08:18:57;;;;;;;0.70;0.70;;;29.50;71.40;;;;;;5054868;28;20673;-82
2022/06/11 08:21:23;;;;;;;0.65;0.65;;;29.70;70.30;;;;;;5055085;28;20208;-82
2022/06/11 08:23:50;;;;;;;0.63;0.63;;;29.50;72.70;;;;;;5054027;28;20222;-82
2022/06/11 08:26:17;;;;;;;0.80;0.80;;;29.90;69.70;;;;;;5054485;28;20720;-82
2022/06/11 08:28:43;;;;;;;0.70;0.60;;;29.80;68.90;;;;;;5055055;28;20212;-82
2022/06/11 08:31:10;;;;;;;0.70;0.70;;;29.60;68.60;;;;;;5054851;28;20327;-82
2022/06/11 08:33:38;;;;;;;0.82;0.82;;;29.50;68.60;;;;;;5054863;28;20224;-82
2022/06/11 08:36:05;;;;;;;1.88;0.70;;;29.80;67.10;;;;;;5054586;28;20708;-82
2022/06/11 08:38:32;;;;;;;3.05;0.90;;;30.00;65.70;;;;;;5055092;28;20217;-82
2022/06/11 08:40:59;;;;;;;2.58;0.70;;;29.80;64.60;;;;;;5055010;28;20203;-82
2022/06/11 08:43:29;;;;;;;0.70;0.70;;;29.70;65.60;;;;;;5054684;28;20272;-82
2022/06/11 08:45:59;;;;;;;0.88;0.75;;;29.50;64.10;;;;;;5055367;28;20549;-85
2022/06/11 08:48:43;;;;;;;1.48;0.73;;;29.60;65.10;;;;;;5054361;28;20696;-81
2022/06/11 08:51:16;;;;;;;1.98;0.68;;;30.00;62.90;;;;;;5054842;28;20243;-82
2022/06/11 08:53:43;;;;;;;0.60;0.60;;;30.70;60.60;;;;;;5054493;28;20720;-83
2022/06/11 08:56:19;;;;;;;0.70;0.70;;;30.90;59.40;;;;;;5054549;28;20665;-83
2022/06/11 08:59:21;;;;;;;0.90;0.77;;;30.90;60.50;;;;;;5054459;28;20188;-83
2022/06/11 09:01:58;;;;;;;0.77;0.77;;;30.70;59.10;;;;;;5054407;28;20195;-83
2022/06/11 09:04:44;;;;;;;2.05;0.80;;;30.40;60.00;;;;;;5054289;28;20700;-83
2022/06/11 09:07:26;;;;;;;4.63;0.88;;;30.40;59.70;;;;;;5054305;28;20187;-83
2022/06/11 09:10:03;;;;;;;0.70;0.70;;;29.90;60.30;;;;;;5054190;28;20213;-82
2022/06/11 09:12:51;;;;;;;7.20;0.90;;;29.50;59.90;;;;;;5054215;28;20217;-82
2022/06/11 09:15:25;;;;;;;0.70;0.70;;;29.00;59.40;;;;;;5053812;28;20751;-82
2022/06/11 09:18:29;;;;;;;0.98;0.88;;;28.40;61.40;;;;;;5054134;28;20200;-82
2022/06/11 09:21:11;;;;;;;0.60;0.60;;;27.90;63.50;;;;;;5053832;28;20557;-82
2022/06/11 09:24:07;;;;;;;0.60;0.60;;;27.60;63.60;;;;;;5053764;28;20212;-82
2022/06/11 09:26:44;;;;;;;0.95;0.70;;;27.80;63.00;;;;;;5053719;28;20240;-82
2022/06/11 09:29:14;;;;;;;0.80;0.77;;;27.80;61.00;;;;;;5053946;28;20242;-82
2022/06/11 09:31:46;;;;;;;0.60;0.60;;;28.00;60.90;;;;;;5053659;28;20647;-81
2022/06/11 09:34:15;;;;;;;0.60;0.60;;;28.10;60.40;;;;;;5053561;28;20227;-82
2022/06/11 09:36:48;;;;;;;0.60;0.60;;;27.90;61.50;;;;;;5053801;28;20207;-82
2022/06/11 09:39:38;;;;;;;0.70;0.70;;;27.80;62.90;;;;;;5053468;28;20191;-82
2022/06/11 09:42:41;;;;;;;0.55;0.55;;;27.80;62.40;;;;;;5054030;28;20192;-82
2022/06/11 09:45:15;;;;;;;0.95;0.85;;;27.40;61.80;;;;;;5053544;28;20218;-82
2022/06/11 09:48:01;;;;;;;0.80;0.80;;;27.30;64.80;;;;;;5054375;28;20557;-82
2022/06/11 09:50:34;;;;;;;1.25;0.60;;;27.20;63.40;;;;;;5053516;28;20211;-82
2022/06/11 09:53:18;;;;;;;1.00;0.70;;;27.10;63.40;;;;;;5053256;28;20575;-81
2022/06/11 09:55:50;;;;;;;4.03;0.90;;;27.00;63.30;;;;;;5053492;28;20239;-82
2022/06/11 09:58:26;;;;;;;0.60;0.60;;;27.00;65.00;;;;;;5053488;28;20187;-82
2022/06/11 10:00:58;;;;;;;0.70;0.65;;;27.10;65.30;;;;;;5053497;28;20653;-82
2022/06/11 10:03:35;;;;;;;0.80;0.80;;;26.80;63.80;;;;;;5053338;28;20304;-82
2022/06/11 10:06:08;;;;;;;0.98;0.88;;;26.60;64.50;;;;;;5053103;28;20556;-82
2022/06/11 10:08:43;;;;;;;0.52;0.52;;;26.50;65.50;;;;;;5053033;28;20584;-82
2022/06/11 10:11:17;;;;;;;0.60;0.60;;;26.40;65.90;;;;;;5053319;28;20217;-82
2022/06/11 10:13:53;;;;;;;2.85;0.60;;;26.60;66.80;;;;;;5053296;28;20331;-82
2022/06/11 10:16:35;;;;;;;0.60;0.60;;;26.80;67.00;;;;;;5053444;28;20203;-82
2022/06/11 10:19:15;;;;;;;0.70;0.70;;;26.90;69.10;;;;;;5052967;28;20198;-82
2022/06/11 10:21:51;;;;;;;0.68;0.60;;;26.90;65.40;;;;;;5053290;28;20183;-81
2022/06/11 10:24:21;;;;;;;1.50;0.50;;;26.80;66.40;;;;;;5053114;28;20229;-82
2022/06/11 10:26:54;;;;;;;1.42;0.75;;;26.60;65.60;;;;;;5052849;28;20234;-82
2022/06/11 10:29:26;;;;;;;0.60;0.60;;;26.60;65.50;;;;;;5053266;28;20187;-82
2022/06/11 10:31:59;;;;;;;0.70;0.70;;;26.70;66.50;;;;;;5053351;28;20222;-82
2022/06/11 10:34:27;;;;;;;0.90;0.90;;;26.90;66.60;;;;;;5053049;28;20218;-81
2022/06/11 10:36:58;;;;;;;0.60;0.60;;;26.90;66.80;;;;;;5053088;28;20198;-81
2022/06/11 10:39:31;;;;;;;0.60;0.60;;;26.80;67.70;;;;;;5052761;28;20650;-82
2022/06/11 10:42:05;;;;;;;0.60;0.60;;;26.60;65.80;;;;;;5053059;28;20194;-82
2022/06/11 10:44:38;;;;;;;0.68;0.68;;;26.50;66.20;;;;;;5052671;28;20218;-82
2022/06/11 10:47:17;;;;;;;0.50;0.50;;;26.60;66.20;;;;;;5055484;28;20195;-82
2022/06/11 10:49:45;;;;;;;0.60;0.60;;;26.80;66.30;;;;;;5056874;28;20186;-82
2022/06/11 10:52:25;;;;;;;1.25;0.65;;;26.80;65.50;;;;;;5056900;28;20188;-82
2022/06/11 10:54:54;;;;;;;0.85;0.70;;;27.00;67.50;;;;;;5056449;28;20230;-82
2022/06/11 10:57:25;;;;;;;0.60;0.60;;;27.40;63.60;;;;;;5056747;28;20210;-81
2022/06/11 10:59:59;;;;;;;0.60;0.60;;;27.80;63.90;;;;;;5056740;28;20194;-81
2022/06/11 11:02:30;;;;;;;0.90;0.80;;;28.00;63.90;;;;;;5056699;28;20186;-82
2022/06/11 11:05:01;;;;;;;0.57;0.57;;;28.30;62.70;;;;;;5056566;28;20705;-81
2022/06/11 11:07:42;;;;;;;0.70;0.70;;;28.50;61.20;;;;;;5056640;28;20645;-81
2022/06/11 11:10:22;;;;;;;0.90;0.80;;;28.60;61.50;;;;;;5056503;28;20234;-81
2022/06/11 11:12:52;;;;;;;0.80;0.80;;;28.50;61.30;;;;;;5056495;28;20573;-81
2022/06/11 11:15:21;;;;;;;0.50;0.50;;;28.40;61.50;;;;;;5056038;28;20714;-81
2022/06/11 11:17:52;;;;;;;0.73;0.70;;;28.10;62.20;;;;;;5056323;28;20207;-81
2022/06/11 11:20:30;;;;;;;0.68;0.68;;;27.80;61.20;;;;;;5056364;28;20631;-81
2022/06/11 11:23:02;;;;;;;0.80;0.80;;;27.60;63.60;;;;;;5056040;28;20666;-81
2022/06/11 11:25:33;;;;;;;0.70;0.70;;;27.40;63.50;;;;;;5055969;28;20199;-81
2022/06/11 11:28:01;;;;;;;0.98;0.60;;;27.10;63.90;;;;;;5056251;28;20179;-81
2022/06/11 11:30:33;;;;;;;1.08;0.98;;;27.00;63.90;;;;;;5055796;28;20203;-81
2022/06/11 11:33:14;;;;;;;0.98;0.73;;;27.10;64.50;;;;;;5055754;28;20198;-81
2022/06/11 11:35:42;;;;;;;0.80;0.80;;;27.10;65.50;;;;;;5056133;28;20198;-81
2022/06/11 11:38:21;;;;;;;3.97;0.93;;;27.00;64.20;;;;;;5056242;28;20198;-81
2022/06/11 11:40:55;;;;;;;0.60;0.60;;;27.00;64.90;;;;;;5055962;28;20179;-81
2022/06/11 11:43:24;;;;;;;1.30;0.70;;;27.10;64.30;;;;;;5056289;28;20215;-81
2022/06/11 11:45:57;;;;;;;0.57;0.57;;;27.10;64.90;;;;;;5055526;28;20678;-81
2022/06/11 11:48:28;;;;;;;2.92;0.60;;;27.10;65.00;;;;;;5055577;28;20670;-81
2022/06/11 11:51:00;;;;;;;2.15;1.00;;;26.90;68.70;;;;;;5055692;28;20211;-81
2022/06/11 11:53:30;;;;;;;0.60;0.60;;;27.00;65.50;;;;;;5055394;28;20738;-81
2022/06/11 11:56:01;;;;;;;0.90;0.77;;;26.90;66.20;;;;;;5055729;28;20187;-81
2022/06/11 11:58:33;;;;;;;0.80;0.80;;;26.70;63.60;;;;;;5055603;28;20187;-81
2022/06/11 12:01:05;;;;;;;0.60;0.60;;;26.50;64.60;;;;;;5055598;28;20183;-82
2022/06/11 12:03:41;;;;;;;1.15;1.15;;;26.30;66.70;;;;;;5055481;28;20241;-81
2022/06/11 12:06:12;;;;;;;0.60;0.60;;;26.10;67.70;;;;;;5055472;28;20665;-81
2022/06/11 12:08:44;;;;;;;0.70;0.70;;;26.10;68.50;;;;;;5055886;28;20552;-82
2022/06/11 12:11:32;;;;;;;1.27;0.65;;;26.10;68.00;;;;;;5055391;28;20213;-81
2022/06/11 12:14:01;;;;;;;1.23;0.88;;;26.30;69.30;;;;;;5055455;28;20234;-81
2022/06/11 12:16:30;;;;;;;0.75;0.50;;;26.30;66.60;;;;;;5055336;28;20654;-81
2022/06/11 12:19:03;;;;;;;0.75;0.75;;;26.30;66.50;;;;;;5054935;28;20696;-81
2022/06/11 12:21:35;;;;;;;0.50;0.50;;;26.30;67.10;;;;;;5055288;28;20183;-82
2022/06/11 12:24:06;;;;;;;0.60;0.60;;;26.30;65.80;;;;;;5055113;28;20218;-82
2022/06/11 12:26:39;;;;;;;1.23;1.10;;;26.20;66.70;;;;;;5054928;28;20280;-82
2022/06/11 12:29:14;;;;;;;1.23;0.90;;;26.10;66.70;;;;;;5055099;28;20205;-81
2022/06/11 12:31:42;;;;;;;0.70;0.60;;;26.10;66.00;;;;;;5054663;28;20313;-82
2022/06/11 12:34:14;;;;;;;0.90;0.70;;;26.00;67.10;;;;;;5054907;28;20591;-81
2022/06/11 12:36:55;;;;;;;0.50;0.50;;;25.90;68.30;;;;;;5054956;28;20183;-81
2022/06/11 12:39:34;;;;;;;1.00;0.80;;;25.80;66.60;;;;;;5054855;28;20198;-82
2022/06/11 12:42:14;;;;;;;1.35;0.90;;;25.70;67.10;;;;;;5054847;28;20186;-82
2022/06/11 12:44:56;;;;;;;0.80;0.80;;;25.70;68.30;;;;;;5054959;28;20222;-81
2022/06/11 12:47:47;;;;;;;0.70;0.70;;;25.80;67.50;;;;;;5055059;28;20601;-82
2022/06/11 12:50:26;;;;;;;0.63;0.63;;;25.60;68.10;;;;;;5054275;28;20611;-81
2022/06/11 12:53:05;;;;;;;0.50;0.50;;;25.80;67.40;;;;;;5054647;28;20183;-81
2022/06/11 12:55:52;;;;;;;1.70;0.80;;;25.80;66.70;;;;;;5054414;28;20183;-81
2022/06/11 12:58:34;;;;;;;2.33;0.60;;;25.90;65.70;;;;;;5054536;28;20194;-81
2022/06/11 13:01:04;;;;;;;1.00;0.80;;;25.80;66.10;;;;;;5054497;28;20179;-81
2022/06/11 13:04:09;;;;;;;0.70;0.70;;;25.80;65.10;;;;;;5054367;28;20234;-82
2022/06/11 13:06:57;;;;;;;0.63;0.63;;;25.70;66.00;;;;;;5033564;28;20209;-82
2022/06/11 13:09:40;;;;;;;0.68;0.68;;;25.50;66.70;;;;;;5053534;28;20669;-81
2022/06/11 13:12:24;;;;;;;0.50;0.50;;;25.40;67.90;;;;;;5054187;28;20203;-82
2022/06/11 13:15:25;;;;;;;1.02;0.80;;;25.40;67.70;;;;;;5054182;28;20592;-81